Time;durP1;ratioP1;P1;durP2;ratioP2;P2;SDS_P1;SDS_P2;PMS_P1;PMS_P2;Temp;Humidity;BMP_temperature;BMP_pressure;BME280_temperature;BME280_humidity;BME280_pressure;Samples;Min_cycle;Max_cycle;Signal;HPM_P1;HPM_P2
2023/06/08 00:00:28;;;;;;;2.90;1.30;;;21.60;43.10;;;;;;2434327;55;21270;-73
2023/06/08 00:02:56;;;;;;;2.92;1.45;;;21.50;43.00;;;;;;2434558;55;22273;-73
2023/06/08 00:05:23;;;;;;;2.80;1.30;;;21.50;43.00;;;;;;2434996;55;20977;-72
2023/06/08 00:07:49;;;;;;;2.70;1.25;;;21.50;43.00;;;;;;2215403;56;21008;-73
2023/06/08 00:10:16;;;;;;;2.40;1.27;;;21.40;43.00;;;;;;2434743;56;20914;-72
2023/06/08 00:12:42;;;;;;;3.00;1.20;;;21.40;43.20;;;;;;2432011;55;20942;-72
2023/06/08 00:15:09;;;;;;;2.30;1.10;;;21.40;43.20;;;;;;2210553;55;20968;-72
2023/06/08 00:17:38;;;;;;;2.62;1.37;;;21.20;43.10;;;;;;2428153;55;20933;-72
2023/06/08 00:20:08;;;;;;;2.20;1.23;;;21.30;43.30;;;;;;2428571;55;21038;-72
2023/06/08 00:22:36;;;;;;;2.42;1.12;;;21.20;43.30;;;;;;2427452;55;21038;-71
2023/06/08 00:25:04;;;;;;;3.03;1.42;;;21.20;43.20;;;;;;2428668;55;20941;-71
2023/06/08 00:27:30;;;;;;;2.47;1.30;;;21.20;43.30;;;;;;2210096;55;20974;-74
2023/06/08 00:29:57;;;;;;;3.15;1.40;;;21.10;43.20;;;;;;2427594;55;21073;-72
2023/06/08 00:32:23;;;;;;;2.15;1.10;;;21.10;43.30;;;;;;2463056;54;20988;-71
2023/06/08 00:34:50;;;;;;;2.28;1.10;;;21.00;43.40;;;;;;2476812;53;21002;-71
2023/06/08 00:37:17;;;;;;;2.70;1.10;;;21.00;43.40;;;;;;2452312;54;21005;-71
2023/06/08 00:39:43;;;;;;;2.58;1.30;;;20.90;43.40;;;;;;2448611;54;21680;-72
2023/06/08 00:42:10;;;;;;;2.60;1.20;;;20.90;43.50;;;;;;2445118;54;21085;-71
2023/06/08 00:44:36;;;;;;;2.35;1.23;;;20.90;43.60;;;;;;2224642;56;20968;-74
2023/06/08 00:47:04;;;;;;;2.35;1.30;;;20.80;43.60;;;;;;2460820;54;20970;-72
2023/06/08 00:49:31;;;;;;;3.78;1.40;;;20.80;43.70;;;;;;2448831;55;20978;-72
2023/06/08 00:51:58;;;;;;;2.72;1.40;;;20.80;43.70;;;;;;2239173;56;20934;-73
2023/06/08 00:54:30;;;;;;;2.35;1.25;;;20.70;43.70;;;;;;2237772;56;21061;-71
2023/06/08 00:57:00;;;;;;;2.47;1.33;;;20.70;43.90;;;;;;2427930;54;21011;-72
2023/06/08 00:59:30;;;;;;;2.62;1.20;;;20.70;43.90;;;;;;2428540;55;20942;-72
2023/06/08 01:01:58;;;;;;;2.30;1.15;;;20.60;44.00;;;;;;2235949;56;20944;-71
2023/06/08 01:04:28;;;;;;;2.40;1.10;;;20.70;44.00;;;;;;2268065;55;20929;-72
2023/06/08 01:07:32;;;;;;;2.28;1.05;;;20.60;44.00;;;;;;2490770;54;20968;-72
2023/06/08 01:10:05;;;;;;;2.58;1.10;;;20.50;44.30;;;;;;2494590;54;20940;-71
2023/06/08 01:13:05;;;;;;;2.12;1.05;;;20.50;44.10;;;;;;2264839;55;21003;-72
2023/06/08 01:15:36;;;;;;;2.03;1.00;;;20.50;44.40;;;;;;2264672;55;20944;-71
2023/06/08 01:18:07;;;;;;;2.50;1.08;;;20.40;44.00;;;;;;2265208;55;21028;-72
2023/06/08 01:21:08;;;;;;;2.53;1.20;;;20.40;44.10;;;;;;2494372;54;21533;-71
2023/06/08 01:24:02;;;;;;;2.42;1.20;;;20.40;44.20;;;;;;2493531;54;20969;-72
2023/06/08 01:26:31;;;;;;;2.47;1.25;;;20.40;44.50;;;;;;2265205;55;20963;-74
2023/06/08 01:28:57;;;;;;;1.95;1.08;;;20.30;44.10;;;;;;2494545;54;21083;-71
2023/06/08 01:31:24;;;;;;;2.47;1.30;;;20.30;44.20;;;;;;2494498;54;21001;-73
2023/06/08 01:33:50;;;;;;;2.58;1.20;;;20.20;44.20;;;;;;2493235;54;21021;-71
2023/06/08 01:36:33;;;;;;;2.45;1.23;;;20.20;44.30;;;;;;2494482;54;21579;-71
2023/06/08 01:40:34;;;;;;;2.25;1.10;;;20.20;44.80;;;;;;2494442;54;21047;-71
2023/06/08 01:43:02;;;;;;;2.37;1.30;;;20.20;45.00;;;;;;2271478;55;21001;-71
2023/06/08 01:45:32;;;;;;;2.15;1.10;;;20.10;44.60;;;;;;2269162;55;20968;-72
2023/06/08 01:48:04;;;;;;;2.47;1.20;;;20.10;44.70;;;;;;2493673;54;20968;-71
2023/06/08 01:50:31;;;;;;;2.03;1.05;;;20.10;44.70;;;;;;2494569;54;21102;-72
2023/06/08 01:52:59;;;;;;;2.50;1.20;;;20.00;44.60;;;;;;2494181;54;21007;-71
2023/06/08 01:55:27;;;;;;;2.40;1.20;;;20.00;44.70;;;;;;2265196;55;20996;-71
2023/06/08 01:57:54;;;;;;;2.40;1.30;;;20.00;44.80;;;;;;2494485;54;21409;-72
2023/06/08 02:00:21;;;;;;;3.55;1.55;;;19.90;44.80;;;;;;2265624;55;21011;-71
2023/06/08 02:02:49;;;;;;;2.60;1.40;;;19.90;45.00;;;;;;2494516;54;21006;-72
2023/06/08 02:05:19;;;;;;;2.53;1.27;;;19.80;45.10;;;;;;2495113;54;21123;-73
2023/06/08 02:07:46;;;;;;;4.00;1.35;;;19.80;45.10;;;;;;2493358;54;20960;-71
2023/06/08 02:10:13;;;;;;;2.58;1.30;;;19.80;45.20;;;;;;2509204;54;21074;-72
2023/06/08 02:12:39;;;;;;;2.83;1.45;;;19.80;45.30;;;;;;2272437;55;21009;-74
2023/06/08 02:15:06;;;;;;;2.83;1.27;;;19.80;45.30;;;;;;2495262;54;21032;-71
2023/06/08 02:17:36;;;;;;;3.20;1.30;;;19.80;45.40;;;;;;2265119;55;20993;-72
2023/06/08 02:20:06;;;;;;;3.42;1.50;;;19.80;45.40;;;;;;2494935;54;21036;-72
2023/06/08 02:22:33;;;;;;;2.50;1.30;;;19.70;45.50;;;;;;2494409;54;21508;-71
2023/06/08 02:25:00;;;;;;;3.50;1.62;;;19.70;45.50;;;;;;2495735;54;21019;-72
2023/06/08 02:27:27;;;;;;;3.08;1.60;;;19.70;45.50;;;;;;2495576;54;20964;-72
2023/06/08 02:29:55;;;;;;;2.90;1.35;;;19.70;45.50;;;;;;2264839;55;20956;-70
2023/06/08 02:32:22;;;;;;;3.40;1.70;;;19.70;45.60;;;;;;2264979;55;21019;-73
2023/06/08 02:34:55;;;;;;;3.53;2.00;;;19.60;45.50;;;;;;2493962;54;20939;-71
2023/06/08 02:37:23;;;;;;;2.83;1.50;;;19.60;45.80;;;;;;2267566;55;21113;-72
2023/06/08 02:39:50;;;;;;;3.17;1.58;;;19.60;45.90;;;;;;2494461;54;21693;-71
2023/06/08 02:42:18;;;;;;;3.00;1.50;;;19.60;45.80;;;;;;2494669;54;20983;-72
2023/06/08 02:44:47;;;;;;;3.70;1.60;;;19.50;45.80;;;;;;2494416;54;20999;-71
2023/06/08 02:47:13;;;;;;;2.83;1.70;;;19.50;45.90;;;;;;2264164;55;21330;-72
2023/06/08 02:49:40;;;;;;;2.90;1.50;;;19.50;45.90;;;;;;2493680;54;20967;-71
2023/06/08 02:52:06;;;;;;;2.53;1.17;;;19.40;45.90;;;;;;2267599;55;22202;-71
2023/06/08 02:54:33;;;;;;;2.40;1.30;;;19.50;46.10;;;;;;2494258;54;20944;-71
2023/06/08 02:56:59;;;;;;;3.08;1.45;;;19.40;46.10;;;;;;2265951;55;21044;-71
2023/06/08 02:59:27;;;;;;;2.78;1.48;;;19.40;46.10;;;;;;2494590;54;21798;-71
2023/06/08 03:01:53;;;;;;;2.47;1.23;;;19.40;46.10;;;;;;2494016;54;21118;-74
2023/06/08 03:04:23;;;;;;;3.65;1.50;;;19.40;46.10;;;;;;2495106;54;21020;-72
2023/06/08 03:06:53;;;;;;;2.47;1.48;;;19.40;46.20;;;;;;2269163;55;20970;-74
2023/06/08 03:09:23;;;;;;;3.28;1.50;;;19.40;46.20;;;;;;2493834;54;21051;-71
2023/06/08 03:11:49;;;;;;;3.22;1.50;;;19.40;46.40;;;;;;2493867;54;20980;-71
2023/06/08 03:14:18;;;;;;;2.97;1.40;;;19.30;46.20;;;;;;2494747;54;21028;-71
2023/06/08 03:16:45;;;;;;;3.15;1.50;;;19.30;46.20;;;;;;2494300;54;20974;-73
2023/06/08 03:19:12;;;;;;;2.62;1.42;;;19.30;46.30;;;;;;2494868;54;20992;-73
2023/06/08 03:21:41;;;;;;;2.62;1.27;;;19.30;46.30;;;;;;2264453;55;22180;-73
2023/06/08 03:24:11;;;;;;;3.08;1.50;;;19.30;46.30;;;;;;2266910;55;20991;-71
2023/06/08 03:26:40;;;;;;;2.60;1.50;;;19.30;46.40;;;;;;2494756;54;21501;-71
2023/06/08 03:29:06;;;;;;;2.65;1.33;;;19.20;46.20;;;;;;2284062;55;20995;-72
2023/06/08 03:31:36;;;;;;;3.25;1.40;;;19.20;46.20;;;;;;2506079;54;20944;-71
2023/06/08 03:34:04;;;;;;;2.95;1.62;;;19.20;46.30;;;;;;2469174;55;21673;-73
2023/06/08 03:36:33;;;;;;;3.05;1.55;;;19.20;46.30;;;;;;2495007;54;21040;-72
2023/06/08 03:39:01;;;;;;;3.37;1.80;;;19.10;46.30;;;;;;2265634;55;21000;-73
2023/06/08 03:41:28;;;;;;;3.22;1.70;;;19.10;46.40;;;;;;2265825;55;20952;-73
2023/06/08 03:43:55;;;;;;;2.97;1.65;;;19.00;46.30;;;;;;2494370;54;20944;-71
2023/06/08 03:46:22;;;;;;;2.90;1.60;;;19.00;46.40;;;;;;2495554;54;20955;-71
2023/06/08 03:48:48;;;;;;;3.33;2.03;;;19.00;46.40;;;;;;2264562;55;20984;-73
2023/06/08 03:51:15;;;;;;;3.83;1.70;;;18.90;46.40;;;;;;2265660;55;20968;-72
2023/06/08 03:53:43;;;;;;;2.53;1.50;;;18.90;46.50;;;;;;2494032;54;20939;-74
2023/06/08 03:56:09;;;;;;;3.20;1.73;;;18.90;46.60;;;;;;2266818;55;21802;-71
2023/06/08 03:58:35;;;;;;;3.10;1.80;;;18.90;46.70;;;;;;2494349;54;20921;-70
2023/06/08 04:01:02;;;;;;;3.00;1.70;;;18.80;46.60;;;;;;2495291;54;21102;-73
2023/06/08 04:03:28;;;;;;;2.95;1.50;;;18.80;47.30;;;;;;2265512;55;21617;-72
2023/06/08 04:05:56;;;;;;;2.65;1.50;;;18.80;46.70;;;;;;2264645;55;22081;-72
2023/06/08 04:08:22;;;;;;;2.75;1.50;;;18.80;46.80;;;;;;2269059;55;20975;-73
2023/06/08 04:10:49;;;;;;;2.75;1.65;;;18.70;46.80;;;;;;2263162;55;21003;-71
2023/06/08 04:13:15;;;;;;;2.97;1.65;;;18.70;47.00;;;;;;2265370;55;21385;-71
2023/06/08 04:15:41;;;;;;;3.95;1.80;;;18.70;47.00;;;;;;2264679;55;20968;-72
2023/06/08 04:18:10;;;;;;;2.80;1.50;;;18.70;47.10;;;;;;2494871;54;21000;-71
2023/06/08 04:20:37;;;;;;;3.87;1.90;;;18.60;47.10;;;;;;2494321;54;21000;-73
2023/06/08 04:23:03;;;;;;;3.00;1.67;;;18.60;47.20;;;;;;2494913;54;20968;-71
2023/06/08 04:25:30;;;;;;;3.47;1.73;;;18.60;47.30;;;;;;2494888;55;21041;-71
2023/06/08 04:27:57;;;;;;;3.30;1.83;;;18.70;47.50;;;;;;2494036;54;20960;-73
2023/06/08 04:30:23;;;;;;;2.97;1.73;;;18.70;47.60;;;;;;2495259;54;21861;-71
2023/06/08 04:32:49;;;;;;;3.60;1.95;;;18.70;47.70;;;;;;2493456;54;20960;-71
2023/06/08 04:35:16;;;;;;;3.37;1.83;;;18.70;47.80;;;;;;2494811;54;20967;-72
2023/06/08 04:37:43;;;;;;;3.47;1.98;;;18.70;47.90;;;;;;2264329;55;20968;-72
2023/06/08 04:40:13;;;;;;;3.22;1.77;;;18.70;48.00;;;;;;2494956;54;20999;-71
2023/06/08 04:42:40;;;;;;;3.25;1.87;;;18.70;48.00;;;;;;2264914;55;20928;-70
2023/06/08 04:45:08;;;;;;;2.87;1.55;;;18.70;48.10;;;;;;2495044;54;21003;-71
2023/06/08 04:47:35;;;;;;;3.10;1.90;;;18.70;48.20;;;;;;2494383;54;21045;-71
2023/06/08 04:50:08;;;;;;;3.53;2.08;;;18.70;48.20;;;;;;2494671;54;20992;-71
2023/06/08 04:52:40;;;;;;;2.92;1.80;;;18.80;48.30;;;;;;2495160;54;20928;-72
2023/06/08 04:55:13;;;;;;;3.15;1.75;;;18.80;48.30;;;;;;2266010;55;21024;-71
2023/06/08 04:57:41;;;;;;;3.47;1.98;;;18.80;48.50;;;;;;2494224;54;20976;-71
2023/06/08 05:00:11;;;;;;;3.67;1.80;;;18.80;48.50;;;;;;2265331;55;21592;-72
2023/06/08 05:02:38;;;;;;;3.08;1.70;;;18.90;48.70;;;;;;2494363;54;21834;-71
2023/06/08 05:05:05;;;;;;;3.20;1.92;;;18.90;48.70;;;;;;2265595;55;21055;-72
2023/06/08 05:07:32;;;;;;;3.85;2.00;;;19.00;48.90;;;;;;2265244;55;21003;-72
2023/06/08 05:10:00;;;;;;;3.65;2.17;;;19.00;49.00;;;;;;2494255;54;20960;-71
2023/06/08 05:12:29;;;;;;;3.55;2.30;;;19.00;49.20;;;;;;2494905;54;20979;-73
2023/06/08 05:14:56;;;;;;;3.58;1.90;;;19.10;49.30;;;;;;2264456;55;21078;-71
2023/06/08 05:17:22;;;;;;;3.40;2.05;;;19.20;49.40;;;;;;2494860;54;21016;-72
2023/06/08 05:19:51;;;;;;;3.70;2.33;;;19.20;49.40;;;;;;2264867;55;21031;-72
2023/06/08 05:22:21;;;;;;;3.80;2.10;;;19.20;49.60;;;;;;2495201;54;21028;-71
2023/06/08 05:24:47;;;;;;;4.05;1.87;;;19.30;49.70;;;;;;2494554;54;20991;-71
2023/06/08 05:27:15;;;;;;;3.85;2.15;;;19.40;49.70;;;;;;2265838;55;21043;-73
2023/06/08 05:29:42;;;;;;;2.92;1.73;;;19.40;49.80;;;;;;2493987;54;20949;-71
2023/06/08 05:32:09;;;;;;;3.60;2.20;;;19.50;50.00;;;;;;2265376;55;21005;-74
2023/06/08 05:34:35;;;;;;;3.20;2.03;;;19.60;50.00;;;;;;2264861;55;20992;-73
2023/06/08 05:37:02;;;;;;;3.75;2.03;;;19.60;49.90;;;;;;2265075;55;21040;-72
2023/06/08 05:39:29;;;;;;;3.55;2.58;;;19.70;50.00;;;;;;2495071;54;20964;-72
2023/06/08 05:41:57;;;;;;;3.28;2.28;;;19.80;50.10;;;;;;2494900;54;20968;-72
2023/06/08 05:44:23;;;;;;;4.12;2.17;;;19.80;50.10;;;;;;2495278;54;20984;-72
2023/06/08 05:46:49;;;;;;;4.18;2.12;;;19.90;50.10;;;;;;2264960;55;21478;-73
2023/06/08 05:49:16;;;;;;;4.15;2.62;;;20.00;50.20;;;;;;2269722;55;21100;-72
2023/06/08 05:51:42;;;;;;;3.72;2.42;;;20.10;50.30;;;;;;2493212;54;20988;-73
2023/06/08 05:54:09;;;;;;;3.37;2.20;;;20.10;50.20;;;;;;2495235;54;21832;-72
2023/06/08 05:56:35;;;;;;;3.35;2.12;;;20.20;50.20;;;;;;2265366;55;21000;-72
2023/06/08 05:59:02;;;;;;;3.65;2.35;;;20.30;50.10;;;;;;2494980;54;21868;-72
2023/06/08 06:01:29;;;;;;;6.28;2.53;;;20.30;50.10;;;;;;2495117;54;21004;-72
2023/06/08 06:03:56;;;;;;;3.50;2.20;;;20.40;50.10;;;;;;2494460;54;21045;-72
2023/06/08 06:06:23;;;;;;;3.85;2.17;;;20.40;50.10;;;;;;2265386;55;20968;-72
2023/06/08 06:08:50;;;;;;;4.03;2.75;;;20.50;50.20;;;;;;2494311;54;21023;-74
2023/06/08 06:11:20;;;;;;;4.93;2.83;;;20.60;50.40;;;;;;2495329;54;20980;-71
2023/06/08 06:13:47;;;;;;;4.18;2.85;;;20.70;50.50;;;;;;2494196;54;20968;-72
2023/06/08 06:16:14;;;;;;;5.32;2.72;;;20.70;50.50;;;;;;2494918;54;20960;-72
2023/06/08 06:18:43;;;;;;;3.95;2.80;;;20.80;50.50;;;;;;2267538;55;20940;-71
2023/06/08 06:21:09;;;;;;;3.35;2.25;;;20.90;50.50;;;;;;2494979;54;21024;-74
2023/06/08 06:23:36;;;;;;;3.33;2.42;;;20.90;50.40;;;;;;2494886;54;21016;-72
2023/06/08 06:26:04;;;;;;;3.78;2.62;;;21.00;50.50;;;;;;2493995;54;21016;-72
2023/06/08 06:28:30;;;;;;;3.95;2.85;;;21.00;50.40;;;;;;2485189;54;20995;-72
2023/06/08 06:30:58;;;;;;;4.70;2.65;;;21.20;50.50;;;;;;2494307;54;20953;-72
2023/06/08 06:33:24;;;;;;;4.22;2.72;;;21.30;50.50;;;;;;2265324;55;20991;-72
2023/06/08 06:35:51;;;;;;;4.43;2.90;;;21.30;50.50;;;;;;2494418;54;21008;-72
2023/06/08 06:38:18;;;;;;;4.03;2.60;;;21.40;50.60;;;;;;2495163;54;20949;-72
2023/06/08 06:40:44;;;;;;;3.72;2.58;;;21.50;50.60;;;;;;2264145;55;20963;-71
2023/06/08 06:43:12;;;;;;;4.10;2.47;;;21.60;50.60;;;;;;2495135;54;20993;-75
2023/06/08 06:45:38;;;;;;;3.87;2.37;;;21.60;50.60;;;;;;2267459;55;20947;-73
2023/06/08 06:48:08;;;;;;;6.07;3.00;;;21.70;50.60;;;;;;2494526;54;21043;-72
2023/06/08 06:50:34;;;;;;;4.90;3.37;;;21.80;50.70;;;;;;2495305;54;20948;-73
2023/06/08 06:53:00;;;;;;;7.93;3.17;;;21.90;50.90;;;;;;2494320;54;20956;-74
2023/06/08 06:55:27;;;;;;;5.00;3.55;;;22.00;51.00;;;;;;2493848;54;20980;-72
2023/06/08 06:57:54;;;;;;;3.95;2.62;;;22.10;51.10;;;;;;2494225;54;21549;-73
2023/06/08 07:00:22;;;;;;;4.60;2.90;;;22.20;51.00;;;;;;2495283;54;21656;-73
2023/06/08 07:02:48;;;;;;;4.03;2.85;;;22.30;51.00;;;;;;2494401;54;21028;-72
2023/06/08 07:05:22;;;;;;;3.70;2.42;;;22.40;51.00;;;;;;2267741;55;20984;-72
2023/06/08 07:07:57;;;;;;;3.42;2.25;;;22.50;51.00;;;;;;2493975;54;20943;-73
2023/06/08 07:10:33;;;;;;;3.67;2.28;;;22.50;50.90;;;;;;2279332;55;21002;-73
2023/06/08 07:14:47;;;;;;;3.37;2.25;;;22.60;50.90;;;;;;2483857;55;20964;-72
2023/06/08 07:18:26;;;;;;;4.07;2.17;;;22.70;50.70;;;;;;2494488;54;21585;-72
2023/06/08 07:21:14;;;;;;;3.25;2.12;;;22.90;50.40;;;;;;2494005;54;21016;-72
2023/06/08 07:24:15;;;;;;;3.80;2.20;;;23.00;50.40;;;;;;2497003;54;20991;-72
2023/06/08 07:27:45;;;;;;;4.07;2.67;;;23.10;50.40;;;;;;2374552;57;21000;-73
2023/06/08 07:30:57;;;;;;;3.72;2.30;;;23.20;50.20;;;;;;2353400;57;21123;-72
2023/06/08 07:33:54;;;;;;;3.90;2.80;;;23.30;50.30;;;;;;2353822;58;20967;-72
2023/06/08 07:36:38;;;;;;;3.50;2.33;;;23.40;50.40;;;;;;2376643;57;21051;-72
2023/06/08 07:40:43;;;;;;;4.12;2.50;;;23.40;50.20;;;;;;2161753;58;20959;-73
2023/06/08 07:46:56;;;;;;;3.90;2.60;;;23.50;50.40;;;;;;2369839;58;21449;-73
2023/06/08 07:49:49;;;;;;;2.87;1.77;;;23.60;50.00;;;;;;2372996;57;21619;-73
2023/06/08 07:52:57;;;;;;;3.08;1.95;;;23.80;49.80;;;;;;2372570;58;21015;-71
2023/06/08 07:56:34;;;;;;;3.65;1.90;;;23.90;49.90;;;;;;2169030;58;21036;-72
2023/06/08 08:03:19;;;;;;;;;;;;;;;;;;;;;
2023/06/08 08:06:19;;;;;;;2.80;1.50;;;24.10;49.30;;;;;;2488472;54;20974;-74
2023/06/08 08:34:01;;;;;;;;;;;;;;;;;;;;;
2023/06/08 10:16:28;;;;;;;2.40;1.10;;;26.20;47.70;;;;;;2269376;56;20988;-72
2023/06/08 10:27:52;;;;;;;2.70;1.70;;;27.60;46.00;;;;;;2178180;57;21010;-72
2023/06/08 11:06:26;;;;;;;3.95;1.40;;;28.80;44.70;;;;;;2364135;57;21517;-74
2023/06/08 11:37:27;;;;;;;;;;;;;;;;;;;;;
2023/06/08 12:27:29;;;;;;;2.20;1.10;;;29.50;41.00;;;;;;2041345;58;18381847;-72
2023/06/08 12:32:05;;;;;;;2.50;1.15;;;29.60;40.80;;;;;;2367799;58;21038;-71
2023/06/08 12:36:36;;;;;;;;;;;;;;;;;;;;;
2023/06/08 12:39:56;;;;;;;2.80;1.23;;;29.70;41.20;;;;;;2323419;59;21092;-72
2023/06/08 12:43:55;;;;;;;;;;;;;;;;;;;;;
2023/06/08 12:47:50;;;;;;;;;;;;;;;;;;;;;
2023/06/08 12:54:21;;;;;;;3.08;1.45;;;30.30;40.30;;;;;;2141310;60;21090;-71
2023/06/08 12:57:34;;;;;;;3.42;1.80;;;30.30;40.20;;;;;;2320851;59;21514;-72
2023/06/08 13:01:02;;;;;;;3.80;1.95;;;30.40;39.80;;;;;;2221152;61;21019;-76
2023/06/08 13:04:18;;;;;;;2.90;1.58;;;30.60;39.70;;;;;;2220237;62;21099;-73
2023/06/08 13:10:15;;;;;;;3.37;1.77;;;30.70;39.70;;;;;;2041074;63;21104;-74
2023/06/08 13:14:02;;;;;;;2.80;1.42;;;30.70;39.50;;;;;;2051439;62;21193;-74
2023/06/08 13:17:32;;;;;;;2.50;1.40;;;30.90;38.70;;;;;;2326716;58;21078;-71
2023/06/08 13:25:51;;;;;;;2.40;1.20;;;31.10;38.20;;;;;;2312119;59;21009;-71
2023/06/08 13:31:42;;;;;;;3.28;1.60;;;31.10;38.00;;;;;;2304411;59;21039;-73
2023/06/08 13:41:00;;;;;;;3.50;1.60;;;31.30;37.90;;;;;;2306846;60;21068;-73
2023/06/08 13:44:55;;;;;;;3.00;1.85;;;31.40;37.60;;;;;;2394463;56;20952;-72
2023/06/08 13:48:11;;;;;;;;;;;;;;;;;;;;;
2023/06/08 13:55:49;;;;;;;;;;;;;;;;;;;;;
2023/06/08 14:02:47;;;;;;;2.87;1.52;;;31.50;36.70;;;;;;2308028;59;21164;-72
2023/06/08 14:10:51;;;;;;;2.65;1.52;;;31.70;36.30;;;;;;2360931;56;21046;-71
2023/06/08 14:13:59;;;;;;;3.40;1.98;;;31.70;36.20;;;;;;2414673;56;21579;-73
2023/06/08 14:23:24;;;;;;;2.65;1.25;;;31.90;36.10;;;;;;2448933;56;21008;-73
2023/06/08 14:27:32;;;;;;;2.53;1.27;;;31.90;35.50;;;;;;2415290;56;21863;-73
2023/06/08 14:41:24;;;;;;;2.17;1.15;;;32.00;35.70;;;;;;2357823;58;21087;-71
2023/06/08 14:58:44;;;;;;;2.87;1.50;;;32.10;35.40;;;;;;2162463;57;21622;-72
2023/06/08 15:02:41;;;;;;;3.03;1.40;;;32.30;35.00;;;;;;2170861;58;28546;-75
2023/06/08 15:05:31;;;;;;;2.47;1.42;;;32.30;33.40;;;;;;2142194;58;21022;-76
2023/06/08 15:09:06;;;;;;;2.93;1.57;;;32.20;33.10;;;;;;2160979;58;21098;-71
2023/06/08 15:11:46;;;;;;;2.78;1.52;;;32.30;33.10;;;;;;2333764;58;22133;-74
2023/06/08 15:14:29;;;;;;;3.00;1.60;;;32.30;33.10;;;;;;2153343;58;21567;-72
2023/06/08 15:21:41;;;;;;;3.20;1.50;;;32.30;33.00;;;;;;2166820;58;21072;-76
2023/06/08 15:24:35;;;;;;;3.22;1.45;;;32.30;32.30;;;;;;2184933;58;21013;-72
2023/06/08 15:28:00;;;;;;;2.95;1.80;;;32.30;32.40;;;;;;2166138;58;21073;-72
2023/06/08 15:30:40;;;;;;;3.20;1.75;;;32.30;31.70;;;;;;2154919;58;20983;-72
2023/06/08 15:33:42;;;;;;;2.78;1.50;;;32.30;32.10;;;;;;2152911;58;21053;-72
2023/06/08 15:37:08;;;;;;;3.40;1.65;;;32.30;31.70;;;;;;2344703;58;21056;-73
2023/06/08 15:41:23;;;;;;;3.00;1.60;;;32.20;31.90;;;;;;2140056;58;20965;-76
2023/06/08 15:44:37;;;;;;;2.90;1.37;;;32.20;32.00;;;;;;2348238;58;21000;-72
2023/06/08 15:47:34;;;;;;;2.42;1.27;;;32.20;31.60;;;;;;2338109;58;20997;-71
2023/06/08 15:51:02;;;;;;;2.42;1.27;;;32.10;32.00;;;;;;2342256;58;21084;-75
2023/06/08 15:55:36;;;;;;;2.92;1.60;;;32.10;31.70;;;;;;2352365;58;21063;-73
2023/06/08 15:58:24;;;;;;;;;;;;;;;;;;;;;
2023/06/08 16:01:55;;;;;;;2.80;1.37;;;32.10;30.70;;;;;;2144293;59;21067;-73
2023/06/08 16:04:42;;;;;;;2.50;1.35;;;32.00;30.30;;;;;;2325420;58;21056;-72
2023/06/08 16:07:24;;;;;;;3.10;1.52;;;31.90;30.60;;;;;;2115274;60;21806;-74
2023/06/08 16:11:00;;;;;;;2.60;1.42;;;31.90;30.50;;;;;;2349629;57;21205;-72
2023/06/08 16:13:55;;;;;;;2.37;1.37;;;31.90;30.50;;;;;;2353048;58;20991;-72
2023/06/08 16:17:02;;;;;;;2.85;1.65;;;31.90;30.90;;;;;;2313124;57;21350;-74
2023/06/08 16:19:41;;;;;;;3.40;1.70;;;31.90;30.60;;;;;;2380089;57;21005;-73
2023/06/08 16:22:20;;;;;;;3.17;1.80;;;31.90;31.00;;;;;;2169266;58;21460;-74
2023/06/08 16:25:16;;;;;;;2.75;1.45;;;31.90;30.80;;;;;;2375657;57;21039;-72
2023/06/08 16:28:47;;;;;;;2.58;1.40;;;31.90;31.10;;;;;;2382295;57;21525;-74
2023/06/08 16:31:53;;;;;;;2.30;1.27;;;31.90;30.80;;;;;;2379297;57;21002;-72
2023/06/08 16:34:46;;;;;;;2.40;1.33;;;31.90;30.70;;;;;;2386645;57;20998;-71
2023/06/08 16:38:19;;;;;;;2.40;1.47;;;31.90;30.70;;;;;;2375513;57;21090;-71
2023/06/08 16:41:14;;;;;;;3.62;1.67;;;31.80;30.50;;;;;;2392240;57;21464;-72
2023/06/08 16:47:50;;;;;;;2.50;1.25;;;31.80;30.20;;;;;;2176248;58;20982;-72
2023/06/08 16:51:09;;;;;;;3.17;1.52;;;31.80;30.00;;;;;;2193943;58;21039;-76
2023/06/08 16:54:03;;;;;;;2.42;1.17;;;31.80;30.40;;;;;;2286581;60;21053;-71
2023/06/08 16:57:52;;;;;;;2.75;1.48;;;31.70;30.10;;;;;;2291474;60;21005;-75
2023/06/08 17:01:06;;;;;;;2.60;1.27;;;31.70;29.90;;;;;;2267214;60;21161;-71
2023/06/08 17:04:04;;;;;;;2.83;1.30;;;31.60;29.90;;;;;;2097793;58;21519;-73
2023/06/08 17:06:40;;;;;;;3.15;1.08;;;31.60;29.90;;;;;;2364302;58;21023;-71
2023/06/08 17:12:13;;;;;;;2.80;1.30;;;31.60;30.20;;;;;;2334265;58;21112;-72
2023/06/08 17:15:42;;;;;;;3.10;1.30;;;31.60;30.40;;;;;;2363630;58;21063;-72
2023/06/08 17:19:30;;;;;;;2.08;1.10;;;31.60;30.00;;;;;;2326300;58;21067;-72
2023/06/08 17:26:39;;;;;;;2.30;1.20;;;31.50;29.90;;;;;;2344109;58;21553;-73
2023/06/08 17:30:51;;;;;;;2.58;1.20;;;31.50;30.30;;;;;;2361446;58;21585;-72
2023/06/08 17:34:14;;;;;;;2.65;1.40;;;31.50;30.10;;;;;;2285208;58;21007;-72
2023/06/08 17:44:45;;;;;;;2.92;1.60;;;31.50;30.50;;;;;;2335088;58;20986;-72
2023/06/08 17:48:24;;;;;;;2.47;1.17;;;31.50;30.60;;;;;;2356965;58;21036;-72
2023/06/08 17:51:16;;;;;;;;;;;;;;;;;;;;;
2023/06/08 17:54:27;;;;;;;5.28;1.90;;;31.90;31.20;;;;;;2338406;58;20062;-73
2023/06/08 17:57:57;;;;;;;2.28;1.15;;;32.00;30.90;;;;;;2333985;58;21008;-72
2023/06/08 18:01:06;;;;;;;2.80;1.27;;;32.20;31.00;;;;;;2342850;58;20980;-72
2023/06/08 18:04:55;;;;;;;2.30;1.30;;;32.30;31.00;;;;;;2348700;58;21051;-74
2023/06/08 18:14:34;;;;;;;2.35;1.08;;;32.70;31.00;;;;;;2342955;58;21064;-72
2023/06/08 18:23:10;;;;;;;1.77;0.90;;;33.00;30.50;;;;;;2143865;59;21218;-73
2023/06/08 18:27:35;;;;;;;1.98;0.85;;;33.10;30.50;;;;;;2326836;58;21129;-71
2023/06/08 18:47:10;;;;;;;2.25;1.10;;;33.10;30.20;;;;;;2147373;59;21051;-72
2023/06/08 19:09:11;;;;;;;1.98;0.98;;;33.10;30.10;;;;;;2528673;53;26461;-74
2023/06/08 19:12:29;;;;;;;;;;;;;;;;;;;;;
2023/06/08 19:16:08;;;;;;;;;;;;;;;;;;;;;
2023/06/08 19:38:49;;;;;;;;;;;;;;;;;;;;;
2023/06/08 19:42:46;;;;;;;1.83;0.77;;;31.00;30.30;;;;;;2486716;53;24778;-75
2023/06/08 19:49:57;;;;;;;2.25;1.05;;;29.40;30.70;;;;;;2456297;55;21035;-72
2023/06/08 19:54:48;;;;;;;2.33;1.05;;;29.20;30.90;;;;;;2427283;55;21571;-74
2023/06/08 19:58:23;;;;;;;2.03;0.90;;;29.00;31.10;;;;;;2384821;56;20987;-74
2023/06/08 20:02:04;;;;;;;1.45;0.75;;;28.80;31.20;;;;;;2373677;56;20985;-75
2023/06/08 20:05:18;;;;;;;1.65;0.80;;;28.50;31.20;;;;;;2229255;55;21106;-71
2023/06/08 20:08:43;;;;;;;2.47;0.80;;;28.40;31.30;;;;;;2445037;54;21020;-73
2023/06/08 20:12:09;;;;;;;;;;;;;;;;;;;;;
2023/06/08 20:15:48;;;;;;;2.87;1.30;;;28.00;31.60;;;;;;2488010;54;21968;-72
2023/06/08 20:19:45;;;;;;;2.15;0.90;;;27.90;31.80;;;;;;2414673;56;21493;-75
2023/06/08 20:29:38;;;;;;;3.53;0.90;;;27.70;31.90;;;;;;2445904;55;21006;-72
2023/06/08 20:36:00;;;;;;;2.15;1.02;;;27.30;32.10;;;;;;2424223;55;21485;-75
2023/06/08 20:50:09;;;;;;;3.20;0.98;;;26.70;32.20;;;;;;2403466;55;21067;-73
2023/06/08 20:53:12;;;;;;;2.62;1.20;;;26.50;32.30;;;;;;2436454;56;20986;-74
2023/06/08 21:15:20;;;;;;;4.32;1.40;;;26.40;32.20;;;;;;2404734;55;21152;-71
2023/06/08 21:21:45;;;;;;;1.62;0.73;;;25.90;32.70;;;;;;2225912;58;21002;-75
2023/06/08 21:25:53;;;;;;;1.73;0.80;;;25.90;33.10;;;;;;2268147;56;20995;-72
2023/06/08 22:04:49;;;;;;;2.72;1.15;;;25.70;33.10;;;;;;2467186;55;21097;-72
2023/06/08 22:10:27;;;;;;;1.60;0.68;;;25.20;33.60;;;;;;2297192;58;21054;-72
2023/06/08 22:14:02;;;;;;;;;;;;;;;;;;;;;
2023/06/08 22:20:26;;;;;;;;;;;;;;;;;;;;;
2023/06/08 23:05:06;;;;;;;1.48;0.70;;;24.70;34.40;;;;;;2502624;54;21641;-71
2023/06/08 23:07:43;;;;;;;1.85;0.88;;;24.10;35.00;;;;;;2504648;54;21018;-71
2023/06/08 23:10:30;;;;;;;2.17;1.00;;;24.00;35.30;;;;;;2500339;54;21443;-74
2023/06/08 23:13:48;;;;;;;2.40;1.30;;;24.00;35.60;;;;;;2306510;55;20984;-72
2023/06/08 23:16:36;;;;;;;2.62;1.10;;;23.90;35.90;;;;;;2298238;55;21034;-72
2023/06/08 23:19:30;;;;;;;2.80;1.10;;;23.90;35.80;;;;;;2512912;54;21031;-73
2023/06/08 23:22:12;;;;;;;2.78;1.20;;;23.80;35.90;;;;;;2537458;54;21086;-71
2023/06/08 23:24:46;;;;;;;2.70;1.30;;;23.80;36.00;;;;;;2301184;55;20952;-71
2023/06/08 23:27:22;;;;;;;2.83;1.40;;;23.80;36.10;;;;;;2538202;54;21031;-72
2023/06/08 23:29:58;;;;;;;3.35;1.50;;;23.80;36.20;;;;;;2304139;55;20964;-71
2023/06/08 23:32:33;;;;;;;2.92;1.52;;;23.70;36.30;;;;;;2298739;55;20966;-71
2023/06/08 23:35:00;;;;;;;2.50;1.20;;;23.70;36.50;;;;;;2469854;54;20987;-70
2023/06/08 23:37:27;;;;;;;2.47;1.30;;;23.60;36.30;;;;;;2245029;56;21004;-71
2023/06/08 23:40:06;;;;;;;3.00;1.40;;;23.60;36.60;;;;;;2245411;56;21064;-71
2023/06/08 23:42:35;;;;;;;3.00;1.30;;;23.60;36.70;;;;;;2252600;56;20992;-71
2023/06/08 23:45:09;;;;;;;2.83;1.50;;;23.50;36.70;;;;;;2268725;55;21051;-71
2023/06/08 23:47:58;;;;;;;2.87;1.42;;;23.50;36.80;;;;;;2530879;53;21019;-73
2023/06/08 23:50:25;;;;;;;2.80;1.58;;;23.40;36.90;;;;;;2296161;56;21018;-71
2023/06/08 23:52:51;;;;;;;2.80;1.52;;;23.40;36.90;;;;;;2519301;54;21415;-71
2023/06/08 23:55:19;;;;;;;2.92;1.50;;;23.30;37.00;;;;;;2278811;55;21689;-71